Ana Sayfa
METAR-TAF:

METAR-TAF

Havaalanları :

Hartum, Sudan

Enlem: 15-36N, Boylam: 032-33E, yükseklik: 382 m

Güncel hava durumu gözlemi

Rapor saat 06:00 UTC de 18 dakika önce yapıldı.
Rüzgar kuzeydan 10 kt
Sıcaklık 20°C
Nem 21%
Basınç 1016 hPa
Görüş mesafesi: 8000 m

METAR: HSSS 240600Z 35010KT 8000 20/M03 Q1016 TEMPO 6000

Saat: 08:18 (06:18 UTC)

Tahmin

Rapor saat 05:00 UTC de 1 saat ve 18 dakika önce yapıldı.
Ayın 24'si saat 06 UTC'den ayın 25'si saat 12 UTC'ye kadar geçerli Tahmin
Rüzgar kuzeydan 12 kt ve 22 kt'a kadar ani rüzgarlar
Görüş mesafesi 10 km veya daha fazla
1500 m altında bulut yok ve kümülonimbus yok
Geçici
ayın 24'si saat 06 UTC'den ayın 24'si saat 09 UTC'ye kadar
Görüş mesafesi: 6000 m

TAF: HSSS 240500Z 2406/2512 35012G22KT CAVOK TEMPO 2406/2409 6000 NSC

4.000'den fazla havaalanı için hava durumu gözlemleri ve tahminleri (METAR ve TAF raporları).

Kullanılabilir istasyonlar harita üzerinde sarı ve kırmızı noktalarla gösterilir.

İstasyonun adını görmek için fareyi noktanın üzerinde gezdirin.

Sonrasında hava gözlem ve tahminlerini görmek için tıklayın.

Haritayı değiştirmek için: yaklaştırmak için siyah artı işaretli yeşil düğmeye ve uzaklaştırmak için de eksi işaretli düğmeye hızla tıklayın; bitişik haritalar için yeşil okları kullanın.


METAR-TAF: